createdAt,value
2022-12-07T00:01:25.775Z,5.57
2022-12-07T00:03:54.277Z,4.73
2022-12-07T00:06:21.017Z,5.17
2022-12-07T00:08:48.045Z,5.63
2022-12-07T00:11:19.675Z,5.03
2022-12-07T00:13:46.551Z,4.90
2022-12-07T00:16:17.728Z,5.30
2022-12-07T00:18:44.557Z,5.73
2022-12-07T00:21:15.552Z,5.13
2022-12-07T00:23:42.590Z,4.67
2022-12-07T00:26:23.181Z,5.10
2022-12-07T00:28:50.814Z,4.90
2022-12-07T00:31:18.323Z,4.20
2022-12-07T00:33:44.967Z,4.53
2022-12-07T00:36:15.651Z,4.10
2022-12-07T00:38:42.324Z,4.03
2022-12-07T00:41:17.654Z,3.70
2022-12-07T00:43:44.632Z,3.33
2022-12-07T00:46:11.508Z,3.33
2022-12-07T00:48:38.159Z,3.47
2022-12-07T00:51:04.965Z,3.50
2022-12-07T00:53:33.518Z,3.10
2022-12-07T00:56:10.549Z,3.67
2022-12-07T00:58:37.140Z,3.07
2022-12-07T01:01:04.601Z,2.93
2022-12-07T01:03:31.401Z,3.07
2022-12-07T01:05:58.037Z,3.17
2022-12-07T01:08:25.116Z,3.17
2022-12-07T01:11:02.459Z,2.83
2022-12-07T01:13:29.359Z,3.00
2022-12-07T01:15:59.003Z,2.40
2022-12-07T01:18:25.601Z,2.43
2022-12-07T01:21:06.385Z,2.30
2022-12-07T01:23:33.487Z,2.83
2022-12-07T01:26:01.200Z,3.20
2022-12-07T01:28:28.033Z,3.03
2022-12-07T01:30:58.408Z,2.80
2022-12-07T01:33:25.051Z,4.43
2022-12-07T01:35:51.676Z,3.17
2022-12-07T01:38:18.289Z,3.23
2022-12-07T01:40:45.059Z,3.60
2022-12-07T01:43:19.298Z,3.40
2022-12-07T01:45:46.081Z,3.00
2022-12-07T01:48:14.404Z,3.37
2022-12-07T01:50:41.001Z,3.40
2022-12-07T01:53:07.983Z,2.90
2022-12-07T01:55:35.281Z,3.43
2022-12-07T01:58:01.894Z,4.03
2022-12-07T02:00:28.483Z,3.00
2022-12-07T02:03:23.228Z,3.10
2022-12-07T02:05:49.817Z,3.10
2022-12-07T02:08:16.469Z,3.83
2022-12-07T02:10:43.132Z,3.20
2022-12-07T02:13:12.938Z,3.77
2022-12-07T02:15:43.141Z,3.57
2022-12-07T02:18:27.820Z,3.30
2022-12-07T02:20:56.925Z,3.53
2022-12-07T02:23:34.948Z,3.50
2022-12-07T02:26:01.483Z,4.83
2022-12-07T02:28:31.131Z,3.50
2022-12-07T02:30:59.785Z,3.83
2022-12-07T02:33:31.994Z,5.83
2022-12-07T02:36:11.316Z,3.83
2022-12-07T02:39:09.853Z,4.20
2022-12-07T02:41:45.354Z,4.10
2022-12-07T02:44:14.428Z,3.60
2022-12-07T02:46:43.304Z,3.13
2022-12-07T02:49:10.171Z,3.80
2022-12-07T02:51:40.131Z,3.60
2022-12-07T02:54:14.488Z,4.50
2022-12-07T02:56:44.065Z,4.27
2022-12-07T02:59:22.354Z,4.17
2022-12-07T03:02:02.857Z,3.83
2022-12-07T03:04:53.119Z,3.90
2022-12-07T03:07:45.422Z,3.40
2022-12-07T03:10:15.049Z,4.47
2022-12-07T03:13:00.552Z,4.30
2022-12-07T03:15:46.356Z,3.77
2022-12-07T03:18:13.864Z,3.60
2022-12-07T03:20:40.599Z,3.93
2022-12-07T03:23:07.668Z,6.30
2022-12-07T03:25:34.532Z,3.20
2022-12-07T03:28:04.158Z,3.57
2022-12-07T03:31:01.425Z,3.67
2022-12-07T03:33:30.801Z,3.20
2022-12-07T03:36:36.572Z,3.87
2022-12-07T03:39:19.135Z,3.50
2022-12-07T03:41:45.724Z,3.50
2022-12-07T03:44:12.340Z,3.23
2022-12-07T03:46:53.379Z,3.93
2022-12-07T03:49:44.520Z,3.60
2022-12-07T03:52:23.137Z,3.70
2022-12-07T03:54:58.655Z,3.20
2022-12-07T03:57:25.892Z,3.53
2022-12-07T03:59:52.862Z,3.80
2022-12-07T04:02:19.443Z,3.30
2022-12-07T04:04:46.075Z,3.70
2022-12-07T04:07:13.793Z,4.07
2022-12-07T04:09:40.408Z,3.73
2022-12-07T04:12:07.049Z,5.00
2022-12-07T04:14:33.652Z,3.97
2022-12-07T04:17:00.414Z,3.43
2022-12-07T04:19:34.320Z,3.73
2022-12-07T04:22:01.918Z,3.93
2022-12-07T04:24:28.779Z,4.30
2022-12-07T04:26:55.361Z,3.80
2022-12-07T04:29:22.064Z,3.70
2022-12-07T04:31:48.993Z,3.70
2022-12-07T04:34:15.857Z,3.93
2022-12-07T04:36:42.481Z,3.27
2022-12-07T04:39:10.545Z,3.50
2022-12-07T04:41:37.133Z,3.60
2022-12-07T04:44:05.268Z,4.03
2022-12-07T04:46:32.757Z,4.00
2022-12-07T04:48:59.483Z,3.67
2022-12-07T04:51:27.695Z,4.00
2022-12-07T04:53:54.481Z,4.77
2022-12-07T04:56:21.381Z,3.70
2022-12-07T04:58:48.527Z,4.07
2022-12-07T05:01:16.000Z,3.27
2022-12-07T05:03:42.669Z,3.53
2022-12-07T05:06:13.435Z,3.20
2022-12-07T05:08:40.597Z,3.30
2022-12-07T05:11:07.627Z,3.60
2022-12-07T05:13:34.253Z,3.63
2022-12-07T05:16:00.918Z,4.00
2022-12-07T05:18:27.601Z,3.87
2022-12-07T05:20:54.288Z,4.03
2022-12-07T05:23:20.896Z,9.20
2022-12-07T05:25:47.606Z,6.53
2022-12-07T05:28:14.230Z,6.30
2022-12-07T05:30:40.836Z,5.60
2022-12-07T05:33:07.453Z,4.20
2022-12-07T05:35:34.181Z,4.70
2022-12-07T05:38:00.759Z,4.13
2022-12-07T05:40:27.377Z,4.37
2022-12-07T05:42:53.965Z,4.20
2022-12-07T05:45:20.677Z,3.77
2022-12-07T05:47:47.316Z,4.03
2022-12-07T05:50:13.923Z,3.17
2022-12-07T05:52:40.524Z,4.47
2022-12-07T05:55:07.927Z,6.23
2022-12-07T05:57:34.514Z,4.63
2022-12-07T06:00:01.431Z,3.70
2022-12-07T06:02:28.476Z,5.17
2022-12-07T06:04:55.191Z,6.50
2022-12-07T06:07:21.868Z,3.90
2022-12-07T06:09:48.505Z,3.87
2022-12-07T06:12:33.455Z,5.67
2022-12-07T06:15:00.129Z,5.90
2022-12-07T06:17:26.753Z,5.17
2022-12-07T06:19:53.420Z,4.87
2022-12-07T06:22:20.004Z,5.10
2022-12-07T06:24:46.655Z,4.53
2022-12-07T06:27:13.284Z,4.23
2022-12-07T06:29:39.874Z,4.00
2022-12-07T06:32:06.634Z,3.93
2022-12-07T06:34:33.337Z,3.77
2022-12-07T06:36:59.927Z,4.23
2022-12-07T06:39:27.511Z,3.17
2022-12-07T06:41:54.883Z,3.10
2022-12-07T06:44:22.560Z,3.23
2022-12-07T06:46:49.716Z,3.00
2022-12-07T06:49:16.485Z,3.60
2022-12-07T06:51:43.159Z,3.50
2022-12-07T06:54:10.589Z,3.30
2022-12-07T06:56:37.218Z,3.23
2022-12-07T06:59:04.787Z,2.90
2022-12-07T07:01:31.593Z,3.13
2022-12-07T07:03:58.281Z,3.43
2022-12-07T07:06:24.887Z,3.40
2022-12-07T07:08:51.588Z,4.33
2022-12-07T07:11:18.243Z,4.10
2022-12-07T07:13:45.480Z,4.63
2022-12-07T07:16:12.179Z,5.30
2022-12-07T07:18:38.787Z,5.00
2022-12-07T07:21:05.684Z,5.63
2022-12-07T07:23:32.305Z,5.37
2022-12-07T07:25:58.979Z,5.87
2022-12-07T07:28:25.579Z,5.47
2022-12-07T07:30:52.281Z,5.90
2022-12-07T07:33:18.946Z,5.17
2022-12-07T07:35:45.679Z,5.17
2022-12-07T07:38:12.287Z,5.37
2022-12-07T07:40:38.926Z,5.70
2022-12-07T07:43:05.522Z,5.50
2022-12-07T07:45:32.292Z,5.70
2022-12-07T07:47:58.881Z,4.73
2022-12-07T07:50:25.471Z,4.77
2022-12-07T07:52:52.261Z,6.37
2022-12-07T07:55:19.013Z,5.77
2022-12-07T07:57:51.195Z,4.83
2022-12-07T08:00:21.280Z,5.60
2022-12-07T08:02:47.963Z,5.30
2022-12-07T08:05:14.828Z,4.77
2022-12-07T08:07:41.585Z,4.80
2022-12-07T08:10:09.387Z,5.80
2022-12-07T08:12:59.787Z,9.10
2022-12-07T08:15:27.449Z,5.63
2022-12-07T08:17:54.468Z,5.10
2022-12-07T08:20:21.405Z,6.63
2022-12-07T08:22:48.045Z,5.33
2022-12-07T08:25:14.649Z,5.10
2022-12-07T08:27:41.255Z,5.07
2022-12-07T08:30:08.384Z,4.17
2022-12-07T08:32:34.998Z,4.10
2022-12-07T08:35:01.589Z,3.53
2022-12-07T08:37:28.204Z,4.03
2022-12-07T08:39:55.219Z,2.93
2022-12-07T08:42:24.038Z,3.07
2022-12-07T08:44:50.628Z,3.03
2022-12-07T08:47:17.226Z,3.87
2022-12-07T08:49:46.040Z,3.23
2022-12-07T08:52:12.641Z,3.17
2022-12-07T08:54:39.731Z,2.97
2022-12-07T08:57:07.043Z,3.10
2022-12-07T08:59:34.155Z,3.70
2022-12-07T09:02:00.802Z,5.40
2022-12-07T09:04:27.438Z,4.30
2022-12-07T09:06:55.148Z,3.50
2022-12-07T09:09:21.792Z,4.37
2022-12-07T09:11:48.397Z,5.17
2022-12-07T09:14:14.996Z,4.20
2022-12-07T09:16:41.666Z,3.40
2022-12-07T09:19:09.053Z,4.53
2022-12-07T09:21:35.662Z,3.97
2022-12-07T09:24:02.670Z,4.73
2022-12-07T09:26:29.278Z,4.50
2022-12-07T09:28:55.880Z,4.07
2022-12-07T09:31:24.312Z,4.10
2022-12-07T09:33:58.827Z,5.00
2022-12-07T09:36:26.080Z,4.30
2022-12-07T09:38:52.722Z,4.33
2022-12-07T09:41:19.537Z,4.40
2022-12-07T09:43:47.089Z,4.30
2022-12-07T09:46:15.964Z,5.10
2022-12-07T09:48:43.426Z,5.03
2022-12-07T09:51:28.146Z,4.40
2022-12-07T09:53:55.813Z,5.47
2022-12-07T09:56:22.655Z,4.67
2022-12-07T09:58:49.338Z,4.47
2022-12-07T10:01:18.168Z,4.33
2022-12-07T10:04:10.713Z,7.73
2022-12-07T10:06:37.295Z,6.13
2022-12-07T10:09:10.340Z,6.10
2022-12-07T10:11:57.086Z,6.83
2022-12-07T10:14:38.177Z,5.70
2022-12-07T10:17:44.554Z,4.63
2022-12-07T10:20:20.614Z,5.87
2022-12-07T10:23:01.763Z,5.47
2022-12-07T10:25:33.721Z,7.20
2022-12-07T10:28:13.574Z,6.40
2022-12-07T10:31:16.144Z,6.23
2022-12-07T10:33:57.316Z,5.83
2022-12-07T10:36:23.892Z,14.50
2022-12-07T10:39:05.311Z,13.23
2022-12-07T10:41:31.930Z,10.20
2022-12-07T10:43:58.667Z,13.43
2022-12-07T10:46:43.711Z,8.73
2022-12-07T10:49:25.934Z,8.57
2022-12-07T10:51:58.682Z,6.13
2022-12-07T10:54:42.068Z,5.93
2022-12-07T10:57:28.708Z,4.70
2022-12-07T11:00:17.394Z,4.63
2022-12-07T11:02:51.555Z,5.23
2022-12-07T11:05:47.791Z,4.33
2022-12-07T11:08:26.461Z,3.80
2022-12-07T11:11:10.785Z,3.47
2022-12-07T11:14:04.773Z,4.03
2022-12-07T11:17:15.935Z,3.70
2022-12-07T11:20:13.414Z,3.47
2022-12-07T11:22:52.752Z,4.13
2022-12-07T11:25:38.553Z,3.80
2022-12-07T11:28:15.273Z,3.73
2022-12-07T11:31:00.614Z,4.27
2022-12-07T11:33:47.018Z,3.77
2022-12-07T11:36:35.373Z,3.60
2022-12-07T11:39:05.296Z,3.90
2022-12-07T11:41:35.729Z,3.70
2022-12-07T11:44:27.065Z,3.10
2022-12-07T11:47:03.509Z,3.17
2022-12-07T11:49:52.901Z,3.00
2022-12-07T11:52:42.252Z,3.50
2022-12-07T11:55:36.002Z,3.13
2022-12-07T11:58:14.696Z,4.67
2022-12-07T12:00:41.285Z,3.27
2022-12-07T12:03:14.349Z,3.17
2022-12-07T12:05:41.028Z,3.20
2022-12-07T12:11:33.832Z,2.73
2022-12-07T12:16:56.158Z,2.67
2022-12-07T12:19:28.639Z,2.90
2022-12-07T12:21:58.415Z,2.70
2022-12-07T12:24:27.424Z,2.60
2022-12-07T12:27:00.383Z,2.60
2022-12-07T12:29:34.283Z,5.50
2022-12-07T12:32:18.967Z,7.50
2022-12-07T12:34:50.898Z,7.20
2022-12-07T12:37:35.838Z,5.93
2022-12-07T12:40:17.260Z,10.03
2022-12-07T12:42:53.942Z,7.03
2022-12-07T12:45:27.440Z,5.53
2022-12-07T12:48:04.340Z,4.07
2022-12-07T12:50:32.359Z,3.53
2022-12-07T12:53:23.148Z,3.50
2022-12-07T12:56:07.767Z,3.47
2022-12-07T12:58:44.829Z,3.43
2022-12-07T13:01:33.399Z,2.87
2022-12-07T13:04:00.079Z,2.80
2022-12-07T13:06:27.250Z,2.40
2022-12-07T13:08:54.611Z,3.20
2022-12-07T13:11:35.336Z,2.73
2022-12-07T13:14:36.521Z,2.83
2022-12-07T13:17:03.255Z,2.50
2022-12-07T13:19:42.077Z,2.40
2022-12-07T13:22:38.855Z,3.40
2022-12-07T13:25:31.372Z,3.77
2022-12-07T13:28:20.081Z,2.90
2022-12-07T13:31:14.245Z,2.57
2022-12-07T13:33:41.703Z,2.40
2022-12-07T13:36:22.070Z,2.20
2022-12-07T13:38:56.523Z,2.20
2022-12-07T13:41:28.111Z,2.30
2022-12-07T13:44:10.416Z,2.23
2022-12-07T13:47:04.669Z,2.50
2022-12-07T13:49:32.938Z,3.60
2022-12-07T13:52:19.872Z,2.20
2022-12-07T13:54:50.912Z,2.03
2022-12-07T13:57:18.057Z,2.03
2022-12-07T13:59:44.704Z,2.37
2022-12-07T14:02:32.374Z,1.93
2022-12-07T14:05:25.837Z,2.07
2022-12-07T14:07:56.424Z,1.80
2022-12-07T14:10:25.942Z,1.97
2022-12-07T14:12:52.525Z,2.17
2022-12-07T14:15:28.282Z,2.57
2022-12-07T14:17:55.845Z,2.57
2022-12-07T14:20:41.219Z,2.50
2022-12-07T14:23:24.522Z,2.50
2022-12-07T14:25:53.069Z,2.20
2022-12-07T14:28:33.387Z,2.60
2022-12-07T14:31:00.819Z,2.03
2022-12-07T14:33:27.792Z,2.13
2022-12-07T14:35:56.473Z,2.27
2022-12-07T14:38:23.331Z,2.10
2022-12-07T14:40:49.963Z,2.13
2022-12-07T14:43:17.184Z,2.00
2022-12-07T14:45:43.974Z,1.90
2022-12-07T14:53:55.213Z,1.80
2022-12-07T14:56:24.020Z,1.70
2022-12-07T14:58:50.637Z,1.90
2022-12-07T15:01:17.351Z,2.00
2022-12-07T15:03:43.984Z,1.97
2022-12-07T15:06:19.932Z,1.70
2022-12-07T15:08:46.638Z,1.90
2022-12-07T15:11:16.651Z,1.90
2022-12-07T15:14:01.756Z,1.90
2022-12-07T15:16:33.528Z,1.80
2022-12-07T15:19:29.992Z,1.90
2022-12-07T15:21:57.539Z,1.90
2022-12-07T15:24:25.074Z,1.83
2022-12-07T15:26:51.770Z,1.63
2022-12-07T15:29:22.815Z,1.90
2022-12-07T15:31:56.302Z,1.87
2022-12-07T15:34:31.908Z,1.80
2022-12-07T15:37:02.924Z,1.80
2022-12-07T15:39:29.538Z,1.60
2022-12-07T15:41:56.149Z,1.70
2022-12-07T15:44:41.450Z,1.70
2022-12-07T15:47:08.079Z,1.63
2022-12-07T15:49:34.705Z,1.90
2022-12-07T15:52:01.353Z,2.10
2022-12-07T15:54:29.019Z,1.70
2022-12-07T15:56:56.018Z,2.10
2022-12-07T15:59:22.761Z,1.90
2022-12-07T16:01:49.405Z,1.87
2022-12-07T16:04:16.065Z,1.57
2022-12-07T16:06:42.690Z,1.80
2022-12-07T16:09:09.651Z,2.53
2022-12-07T16:11:36.342Z,2.70
2022-12-07T16:14:03.070Z,2.87
2022-12-07T16:16:29.734Z,2.80
2022-12-07T16:18:56.376Z,3.10
2022-12-07T16:21:25.330Z,3.57
2022-12-07T16:23:52.434Z,3.30
2022-12-07T16:26:20.668Z,2.67
2022-12-07T16:28:50.115Z,2.50
2022-12-07T16:31:17.932Z,2.77
2022-12-07T16:33:44.972Z,2.40
2022-12-07T16:36:12.243Z,2.47
2022-12-07T16:38:38.978Z,2.10
2022-12-07T16:41:08.705Z,1.90
2022-12-07T16:43:35.414Z,2.33
2022-12-07T16:46:02.212Z,2.20
2022-12-07T16:48:28.895Z,2.17
2022-12-07T16:50:55.591Z,1.80
2022-12-07T16:53:22.789Z,1.83
2022-12-07T16:55:49.445Z,2.00
2022-12-07T16:58:16.324Z,1.97
2022-12-07T17:00:43.332Z,2.13
2022-12-07T17:03:10.172Z,2.37
2022-12-07T17:05:43.112Z,2.40
2022-12-07T17:08:10.065Z,2.10
2022-12-07T17:10:38.141Z,1.90
2022-12-07T17:13:25.314Z,1.80
2022-12-07T17:16:03.491Z,2.20
2022-12-07T17:18:31.752Z,2.00
2022-12-07T17:21:05.603Z,1.63
2022-12-07T17:23:32.834Z,1.90
2022-12-07T17:26:07.297Z,2.20
2022-12-07T17:28:34.099Z,2.07
2022-12-07T17:31:00.786Z,2.33
2022-12-07T17:33:27.483Z,2.33
2022-12-07T17:35:54.060Z,3.07
2022-12-07T17:38:20.664Z,2.50
2022-12-07T17:40:47.319Z,4.00
2022-12-07T17:43:13.927Z,2.80
2022-12-07T17:45:40.628Z,2.60
2022-12-07T17:48:07.264Z,2.67
2022-12-07T17:50:52.446Z,2.73
2022-12-07T17:53:19.132Z,2.80
2022-12-07T17:56:26.562Z,2.23
2022-12-07T17:58:32.275Z,2.80
2022-12-07T18:00:58.880Z,2.77
2022-12-07T18:03:25.538Z,2.47
2022-12-07T18:05:52.152Z,2.50
2022-12-07T18:08:18.810Z,2.20
2022-12-07T18:10:45.454Z,2.20
2022-12-07T18:13:30.467Z,3.23
2022-12-07T18:15:57.880Z,2.80
2022-12-07T18:18:24.540Z,2.93
2022-12-07T18:20:51.107Z,2.80
2022-12-07T18:23:17.799Z,2.70
2022-12-07T18:25:50.725Z,2.80
2022-12-07T18:28:17.495Z,3.30
2022-12-07T18:31:14.396Z,3.17
2022-12-07T18:33:37.510Z,3.13
2022-12-07T18:36:04.636Z,2.93
2022-12-07T18:38:31.362Z,3.17
2022-12-07T18:40:58.056Z,3.23
2022-12-07T18:43:27.270Z,3.30
2022-12-07T18:45:56.269Z,3.20
2022-12-07T18:48:23.195Z,3.00
2022-12-07T18:51:02.867Z,3.43
2022-12-07T18:53:29.685Z,2.50
2022-12-07T18:56:07.455Z,2.37
2022-12-07T18:58:34.164Z,2.07
2022-12-07T19:01:00.900Z,2.20
2022-12-07T19:03:32.834Z,2.30
2022-12-07T19:06:05.039Z,2.23
2022-12-07T19:08:31.652Z,2.07
2022-12-07T19:11:23.380Z,3.23
2022-12-07T19:13:50.490Z,2.33
2022-12-07T19:16:17.129Z,2.10
2022-12-07T19:18:49.334Z,1.77
2022-12-07T19:21:17.816Z,1.80
2022-12-07T19:23:44.479Z,1.80
2022-12-07T19:26:11.062Z,2.13
2022-12-07T19:28:37.681Z,1.93
2022-12-07T19:31:08.112Z,1.83
2022-12-07T19:33:34.762Z,2.20
2022-12-07T19:36:01.435Z,1.90
2022-12-07T19:38:32.404Z,2.10
2022-12-07T19:41:29.414Z,2.90
2022-12-07T19:43:56.287Z,2.40
2022-12-07T19:46:23.117Z,2.47
2022-12-07T19:48:49.792Z,2.47
2022-12-07T19:51:16.450Z,2.43
2022-12-07T19:53:43.745Z,2.30
2022-12-07T19:56:20.450Z,2.70
2022-12-07T19:58:47.886Z,2.47
2022-12-07T20:01:14.821Z,2.53
2022-12-07T20:03:41.445Z,2.40
2022-12-07T20:06:16.466Z,2.27
2022-12-07T20:08:43.305Z,2.30
2022-12-07T20:11:28.367Z,2.30
2022-12-07T20:13:55.515Z,2.27
2022-12-07T20:16:22.119Z,2.20
2022-12-07T20:18:54.288Z,2.10
2022-12-07T20:21:24.309Z,2.90
2022-12-07T20:23:50.985Z,2.60
2022-12-07T20:26:17.622Z,2.70
2022-12-07T20:28:46.383Z,2.60
2022-12-07T20:31:14.452Z,3.00
2022-12-07T20:33:41.365Z,2.93
2022-12-07T20:36:09.728Z,2.67
2022-12-07T20:38:36.312Z,2.10
2022-12-07T20:41:04.832Z,1.90
2022-12-07T20:43:31.537Z,2.00
2022-12-07T20:45:59.001Z,2.00
2022-12-07T20:48:26.062Z,2.27
2022-12-07T20:50:52.688Z,2.33
2022-12-07T20:53:19.379Z,2.40
2022-12-07T20:55:46.016Z,2.60
2022-12-07T20:58:12.601Z,2.50
2022-12-07T21:00:39.273Z,2.57
2022-12-07T21:03:05.938Z,2.50
2022-12-07T21:05:33.143Z,2.40
2022-12-07T21:07:59.779Z,2.10
2022-12-07T21:10:26.404Z,2.97
2022-12-07T21:12:55.819Z,2.60
2022-12-07T21:15:22.655Z,2.50
2022-12-07T21:17:49.268Z,2.97
2022-12-07T21:20:15.898Z,2.07
2022-12-07T21:22:42.694Z,2.30
2022-12-07T21:25:09.645Z,2.60
2022-12-07T21:27:36.261Z,2.13
2022-12-07T21:30:02.935Z,2.10
2022-12-07T21:32:29.526Z,2.83
2022-12-07T21:34:56.132Z,2.37
2022-12-07T21:37:22.796Z,2.20
2022-12-07T21:39:50.007Z,2.73
2022-12-07T21:42:16.597Z,2.30
2022-12-07T21:44:43.259Z,2.60
2022-12-07T21:47:09.852Z,2.33
2022-12-07T21:49:36.571Z,2.03
2022-12-07T21:52:03.460Z,1.90
2022-12-07T21:54:30.092Z,2.40
2022-12-07T21:56:56.693Z,1.90
2022-12-07T21:59:23.373Z,2.27
2022-12-07T22:01:50.693Z,2.20
2022-12-07T22:04:19.231Z,2.40
2022-12-07T22:06:46.054Z,2.67
2022-12-07T22:09:12.703Z,2.73
2022-12-07T22:11:39.324Z,2.43
2022-12-07T22:14:24.395Z,2.73
2022-12-07T22:16:51.503Z,2.10
2022-12-07T22:19:18.346Z,2.20
2022-12-07T22:21:44.960Z,2.80
2022-12-07T22:24:12.873Z,2.80
2022-12-07T22:26:40.393Z,2.90
2022-12-07T22:29:06.988Z,2.50
2022-12-07T22:31:33.673Z,2.80
2022-12-07T22:34:00.301Z,2.70
2022-12-07T22:36:28.249Z,2.70
2022-12-07T22:38:54.865Z,2.40
2022-12-07T22:41:31.601Z,2.53
2022-12-07T22:43:58.643Z,2.70
2022-12-07T22:46:25.486Z,2.50
2022-12-07T22:48:52.652Z,2.43
2022-12-07T22:51:26.155Z,2.43
2022-12-07T22:53:53.068Z,2.47
2022-12-07T22:56:19.873Z,2.53
2022-12-07T22:58:46.518Z,2.40
2022-12-07T23:01:14.189Z,2.80
2022-12-07T23:03:40.967Z,2.40
2022-12-07T23:06:09.235Z,2.53
2022-12-07T23:08:35.946Z,2.50
2022-12-07T23:11:02.751Z,2.63
2022-12-07T23:13:32.005Z,2.30
2022-12-07T23:16:00.190Z,2.33
2022-12-07T23:18:26.957Z,2.60
2022-12-07T23:20:56.324Z,3.10
2022-12-07T23:23:22.909Z,2.77
2022-12-07T23:25:50.216Z,2.13
2022-12-07T23:28:16.801Z,2.60
2022-12-07T23:30:43.465Z,2.37
2022-12-07T23:33:10.054Z,2.30
2022-12-07T23:35:36.658Z,2.37
2022-12-07T23:38:03.292Z,3.00
2022-12-07T23:40:29.892Z,2.93
2022-12-07T23:42:57.044Z,3.30
2022-12-07T23:45:23.673Z,3.37
2022-12-07T23:47:50.258Z,2.80
2022-12-07T23:50:16.960Z,2.80
2022-12-07T23:52:43.553Z,2.67
2022-12-07T23:55:10.345Z,3.20
2022-12-07T23:57:36.957Z,2.50
